^^
Station Historical Data
 
Daily Summary for November 21, 2019 Units:  English    Metric   Both
« Previous Day
Next Day »
Daily Weekly Monthly Yearly Custom
  Current: High: Low: Average:
Temperature: 21.7 °F 23.8 °F 16.7 °F 19.5 °F
Dew Point: 17.6 °F 19.7 °F 13.1 °F 15.7 °F
Humidity: 84% 88% 81% 85%
Wind Speed: 10mph 23mph 4mph 12.7mph
Wind Gust: 16mph 26mph - -
WindWNW - - NW
Pressure: 30.40 in 30.40 in 30.27 in -
Precipitation: 0 in      
Historical Graphs
 
 
Tabular Data for November 21, 2019
Time Temperature Dew Point Pressure Wind Wind Speed Wind Gust Humidity Rainfall Rate (Hourly) solar Conditions
00:00 23.5 °F 19.4 °F 30.27 in NW 15 mph 19 mph 84% 0 in 0.00 W/m2
00:05 23.6 °F 19.5 °F 30.27 in NW 13 mph 21 mph 84% 0 in 0.00 W/m2
00:10 23.6 °F 19.5 °F 30.27 in NW 17 mph 21 mph 84% 0 in 0.00 W/m2
00:15 23.7 °F 19.6 °F 30.27 in NW 11 mph 19 mph 84% 0 in 0.00 W/m2
00:20 23.7 °F 19.6 °F 30.27 in WNW 13 mph 19 mph 84% 0 in 0.00 W/m2
00:25 23.8 °F 19.4 °F 30.27 in NNW 16 mph 20 mph 83% 0 in 0.00 W/m2
00:30 23.7 °F 19.3 °F 30.28 in NW 11 mph 22 mph 83% 0 in 0.00 W/m2
00:35 23.7 °F 19.3 °F 30.28 in NNW 11 mph 24 mph 83% 0 in 0.00 W/m2
00:40 23.7 °F 19.6 °F 30.27 in NNW 16 mph 24 mph 84% 0 in 0.00 W/m2
00:45 23.8 °F 19.7 °F 30.27 in NW 14 mph 24 mph 84% 0 in 0.00 W/m2
00:50 23.8 °F 19.7 °F 30.27 in NW 11 mph 24 mph 84% 0 in 0.00 W/m2
00:55 23.7 °F 19.6 °F 30.27 in NW 19 mph 20 mph 84% 0 in 0.00 W/m2
01:00 23.4 °F 19.3 °F 30.27 in NNW 20 mph 21 mph 84% 0 in 0.00 W/m2
01:05 23.4 °F 19.3 °F 30.28 in NNW 11 mph 21 mph 84% 0 in 0.00 W/m2
01:10 23.4 °F 19.3 °F 30.28 in NW 11 mph 20 mph 84% 0 in 0.00 W/m2
01:15 23.4 °F 19.6 °F 30.28 in NW 15 mph 21 mph 85% 0 in 0.00 W/m2
01:20 23.4 °F 19.3 °F 30.28 in NNW 11 mph 21 mph 84% 0 in 0.00 W/m2
01:25 23.4 °F 19.3 °F 30.28 in NNW 15 mph 23 mph 84% 0 in 0.00 W/m2
01:30 23.2 °F 19.4 °F 30.27 in NW 22 mph 23 mph 85% 0 in 0.00 W/m2
01:35 23.1 °F 19.3 °F 30.28 in NW 22 mph 23 mph 85% 0 in 0.00 W/m2
01:40 22.9 °F 19.1 °F 30.28 in NW 18 mph 24 mph 85% 0 in 0.00 W/m2
01:45 22.7 °F 18.9 °F 30.28 in WNW 18 mph 24 mph 85% 0 in 0.00 W/m2
01:50 22.5 °F 18.7 °F 30.28 in WNW 17 mph 24 mph 85% 0 in 0.00 W/m2
01:55 22.4 °F 18.6 °F 30.28 in NW 8 mph 24 mph 85% 0 in 0.00 W/m2
02:00 22 °F 18.2 °F 30.27 in NW 15 mph 24 mph 85% 0 in 0.00 W/m2
02:05 21.8 °F 18 °F 30.28 in WNW 16 mph 24 mph 85% 0 in 0.00 W/m2
02:10 21.7 °F 17.9 °F 30.28 in NW 10 mph 20 mph 85% 0 in 0.00 W/m2
02:15 21.5 °F 17.7 °F 30.28 in NW 9 mph 21 mph 85% 0 in 0.00 W/m2
02:20 21.3 °F 17.5 °F 30.28 in WNW 12 mph 21 mph 85% 0 in 0.00 W/m2
02:25 21.1 °F 17 °F 30.29 in NW 14 mph 25 mph 84% 0 in 0.00 W/m2
02:30 20.9 °F 17.1 °F 30.29 in WNW 11 mph 25 mph 85% 0 in 0.00 W/m2
02:35 20.6 °F 16.5 °F 30.29 in NW 16 mph 24 mph 84% 0 in 0.00 W/m2
02:40 20.2 °F 16.1 °F 30.29 in WNW 17 mph 24 mph 84% 0 in 0.00 W/m2
02:45 20.1 °F 16 °F 30.30 in WNW 10 mph 24 mph 84% 0 in 0.00 W/m2
02:50 20 °F 15.9 °F 30.30 in NW 13 mph 23 mph 84% 0 in 0.00 W/m2
02:55 19.9 °F 15.8 °F 30.30 in WNW 16 mph 23 mph 84% 0 in 0.00 W/m2
03:00 19.8 °F 16 °F 30.30 in NNW 10 mph 21 mph 85% 0 in 0.00 W/m2
03:05 19.8 °F 16 °F 30.30 in NW 15 mph 21 mph 85% 0 in 0.00 W/m2
03:10 19.8 °F 16 °F 30.30 in WNW 11 mph 21 mph 85% 0 in 0.00 W/m2
03:15 19.9 °F 16.1 °F 30.30 in WNW 16 mph 21 mph 85% 0 in 0.00 W/m2
03:20 19.8 °F 15.7 °F 30.30 in WNW 18 mph 24 mph 84% 0 in 0.00 W/m2
03:25 19.6 °F 15.3 °F 30.30 in NW 23 mph 24 mph 83% 0 in 0.00 W/m2
03:30 19.6 °F 15.6 °F 30.30 in NW 17 mph 23 mph 84% 0 in 0.00 W/m2
03:35 19.7 °F 15.6 °F 30.30 in NW 13 mph 24 mph 84% 0 in 0.00 W/m2
03:40 19.7 °F 15.4 °F 30.30 in NW 21 mph 24 mph 83% 0 in 0.00 W/m2
03:45 19.6 °F 15.6 °F 30.30 in WNW 19 mph 23 mph 84% 0 in 0.00 W/m2
03:50 19.7 °F 15.4 °F 30.30 in WNW 17 mph 22 mph 83% 0 in 0.00 W/m2
03:55 19.8 °F 15.5 °F 30.30 in NW 13 mph 23 mph 83% 0 in 0.00 W/m2
04:00 19.7 °F 15.4 °F 30.30 in NW 19 mph 23 mph 83% 0 in 0.00 W/m2
04:05 19.8 °F 15.7 °F 30.30 in NW 11 mph 23 mph 84% 0 in 0.00 W/m2
04:10 19.6 °F 15.3 °F 30.30 in WNW 20 mph 23 mph 83% 0 in 0.00 W/m2
04:15 19.5 °F 15.2 °F 30.30 in WNW 15 mph 23 mph 83% 0 in 0.00 W/m2
04:20 19.4 °F 15.1 °F 30.30 in WNW 21 mph 22 mph 83% 0 in 0.00 W/m2
04:25 19.3 °F 15 °F 30.30 in NW 14 mph 22 mph 83% 0 in 0.00 W/m2
04:30 19.2 °F 14.9 °F 30.30 in WNW 13 mph 22 mph 83% 0 in 0.00 W/m2
04:35 18.9 °F 14.3 °F 30.31 in WNW 23 mph 24 mph 82% 0 in 0.00 W/m2
04:40 18.4 °F 13.5 °F 30.31 in NW 18 mph 26 mph 81% 0 in 0.00 W/m2
04:45 17.9 °F 13.1 °F 30.31 in NW 20 mph 26 mph 81% 0 in 0.00 W/m2
04:50 17.9 °F 13.1 °F 30.31 in NW 18 mph 25 mph 81% 0 in 0.00 W/m2
04:55 17.9 °F 13.3 °F 30.31 in WNW 17 mph 25 mph 82% 0 in 0.00 W/m2
05:00 17.9 °F 13.3 °F 30.31 in WNW 15 mph 25 mph 82% 0 in 0.00 W/m2
05:05 17.8 °F 13.2 °F 30.31 in NW 23 mph 23 mph 82% 0 in 0.00 W/m2
05:10 17.8 °F 13.2 °F 30.31 in WNW 11 mph 23 mph 82% 0 in 0.00 W/m2
05:15 17.9 °F 13.6 °F 30.31 in NW 14 mph 22 mph 83% 0 in 0.00 W/m2
05:20 17.9 °F 13.6 °F 30.31 in WNW 18 mph 23 mph 83% 0 in 0.00 W/m2
05:25 17.9 °F 13.6 °F 30.32 in NW 14 mph 23 mph 83% 0 in 0.00 W/m2
05:30 17.9 °F 13.6 °F 30.32 in NW 12 mph 19 mph 83% 0 in 0.00 W/m2
05:35 17.8 °F 13.5 °F 30.32 in NW 15 mph 19 mph 83% 0 in 0.00 W/m2
05:40 17.8 °F 13.5 °F 30.32 in NW 8 mph 19 mph 83% 0 in 0.00 W/m2
05:45 17.7 °F 13.7 °F 30.32 in WNW 10 mph 19 mph 84% 0 in 0.00 W/m2
05:50 17.7 °F 13.7 °F 30.32 in WNW 14 mph 19 mph 84% 0 in 0.00 W/m2
05:55 17.8 °F 13.8 °F 30.32 in WNW 9 mph 19 mph 84% 0 in 0.00 W/m2
06:00 17.7 °F 13.7 °F 30.32 in WNW 13 mph 18 mph 84% 0 in 0.00 W/m2
06:05 17.7 °F 13.7 °F 30.32 in WNW 9 mph 18 mph 84% 0 in 0.00 W/m2
06:10 17.3 °F 13.6 °F 30.32 in WNW 9 mph 15 mph 85% 0 in 0.00 W/m2
06:15 17.1 °F 13.4 °F 30.32 in WNW 9 mph 15 mph 85% 0 in 0.00 W/m2
06:20 16.9 °F 13.4 °F 30.33 in WNW 12 mph 16 mph 86% 0 in 0.00 W/m2
06:25 16.9 °F 13.4 °F 30.33 in WNW 14 mph 16 mph 86% 0 in 0.00 W/m2
06:30 17 °F 13.5 °F 30.33 in NW 8 mph 17 mph 86% 0 in 0.00 W/m2
06:35 16.9 °F 13.4 °F 30.34 in WNW 11 mph 17 mph 86% 0 in 0.00 W/m2
06:40 17 °F 13.5 °F 30.34 in NW 9 mph 17 mph 86% 0 in 0.00 W/m2
06:45 17 °F 13.5 °F 30.34 in WNW 14 mph 17 mph 86% 0 in 0.00 W/m2
06:50 17 °F 13.5 °F 30.34 in WNW 13 mph 17 mph 86% 0 in 0.00 W/m2
06:55 17 °F 13.5 °F 30.34 in WNW 14 mph 17 mph 86% 0 in 0.00 W/m2
07:00 17 °F 13.8 °F 30.34 in NW 11 mph 17 mph 87% 0 in 0.00 W/m2
07:05 17 °F 13.5 °F 30.35 in NW 10 mph 17 mph 86% 0 in 0.00 W/m2
07:10 17.1 °F 13.9 °F 30.35 in West 10 mph 16 mph 87% 0 in 0.00 W/m2
07:15 17.1 °F 13.9 °F 30.35 in WNW 9 mph 16 mph 87% 0 in 0.00 W/m2
07:20 17.1 °F 13.9 °F 30.35 in WNW 10 mph 18 mph 87% 0 in 0.00 W/m2
07:25 17.1 °F 13.9 °F 30.35 in NW 10 mph 18 mph 87% 0 in 0.00 W/m2
07:30 17.1 °F 13.9 °F 30.36 in NW 10 mph 18 mph 87% 0 in 0.00 W/m2
07:35 17 °F 14.1 °F 30.36 in NW 13 mph 18 mph 88% 0 in 0.00 W/m2
07:40 17.2 °F 14 °F 30.36 in NW 10 mph 16 mph 87% 0 in 0.00 W/m2
07:45 17.2 °F 14 °F 30.36 in NW 10 mph 16 mph 87% 0 in 0.00 W/m2
07:50 17 °F 13.8 °F 30.36 in NW 15 mph 17 mph 87% 0 in 5.00 W/m2
07:55 17 °F 13.8 °F 30.36 in NW 11 mph 19 mph 87% 0 in 7.00 W/m2
08:00 16.9 °F 13.7 °F 30.36 in NW 12 mph 19 mph 87% 0 in 9.00 W/m2
08:05 16.8 °F 13.6 °F 30.36 in WNW 10 mph 19 mph 87% 0 in 12.00 W/m2
08:10 16.8 °F 13.6 °F 30.36 in WNW 10 mph 19 mph 87% 0 in 16.00 W/m2
08:15 16.7 °F 13.5 °F 30.36 in NW 6 mph 16 mph 87% 0 in 18.00 W/m2
08:20 16.7 °F 13.5 °F 30.36 in NW 7 mph 16 mph 87% 0 in 21.00 W/m2
08:25 16.8 °F 13.6 °F 30.37 in NW 8 mph 16 mph 87% 0 in 25.00 W/m2
08:30 17 °F 13.8 °F 30.37 in NW 8 mph 13 mph 87% 0 in 28.00 W/m2
08:35 17.1 °F 13.9 °F 30.37 in WNW 9 mph 14 mph 87% 0 in 33.00 W/m2
08:40 17.2 °F 14 °F 30.37 in WNW 9 mph 14 mph 87% 0 in 37.00 W/m2
08:45 17.4 °F 14.2 °F 30.37 in NW 8 mph 14 mph 87% 0 in 46.00 W/m2
08:50 17.5 °F 14.3 °F 30.38 in West 6 mph 14 mph 87% 0 in 56.00 W/m2
08:55 17.7 °F 14.8 °F 30.38 in West 4 mph 10 mph 88% 0 in 63.00 W/m2
09:00 18.1 °F 14.9 °F 30.38 in NW 9 mph 11 mph 87% 0 in 72.00 W/m2
09:05 18.3 °F 15.1 °F 30.38 in NW 9 mph 13 mph 87% 0 in 77.00 W/m2
09:10 18.6 °F 15.4 °F 30.38 in WNW 9 mph 13 mph 87% 0 in 86.00 W/m2
09:15 18.8 °F 15.6 °F 30.38 in NW 7 mph 13 mph 87% 0 in 95.00 W/m2
09:20 19.1 °F 15.6 °F 30.39 in WNW 8 mph 13 mph 86% 0 in 118.00 W/m2
09:25 19.4 °F 15.9 °F 30.39 in WNW 8 mph 13 mph 86% 0 in 148.00 W/m2
09:30 19.7 °F 16.2 °F 30.39 in WNW 7 mph 13 mph 86% 0 in 192.00 W/m2
09:35 19.8 °F 16.3 °F 30.39 in WNW 8 mph 13 mph 86% 0 in 105.00 W/m2
09:40 19.9 °F 16.4 °F 30.39 in NW 11 mph 15 mph 86% 0 in 176.00 W/m2
09:45 20.2 °F 16.7 °F 30.39 in WNW 12 mph 16 mph 86% 0 in 137.00 W/m2
09:50 20.3 °F 16.5 °F 30.39 in NW 8 mph 16 mph 85% 0 in 137.00 W/m2
09:55 20.8 °F 17.3 °F 30.39 in NW 9 mph 15 mph 86% 0 in 274.00 W/m2
10:00 21 °F 17.2 °F 30.39 in NW 11 mph 16 mph 85% 0 in 155.00 W/m2
10:05 21 °F 16.9 °F 30.39 in NW 8 mph 16 mph 84% 0 in 149.00 W/m2
10:10 21.4 °F 17.6 °F 30.39 in NW 6 mph 16 mph 85% 0 in 269.00 W/m2
10:15 21.7 °F 17.6 °F 30.40 in WNW 10 mph 16 mph 84% 0 in 279.00 W/m2
Bismarck, North Dakota, USA
Compliments of Weather Underground - 2 mb